sensor_id;sensor_type;location;lat;lon;timestamp;P1;durP1;ratioP1;P2;durP2;ratioP2
92;SDS011;16232;48.800;9.002;2023-12-20T00:01:49;1.57;;;1.47;;
92;SDS011;16232;48.800;9.002;2023-12-20T00:04:16;1.47;;;1.37;;
92;SDS011;16232;48.800;9.002;2023-12-20T00:06:43;1.67;;;1.40;;
92;SDS011;16232;48.800;9.002;2023-12-20T00:09:11;1.70;;;1.53;;
92;SDS011;16232;48.800;9.002;2023-12-20T00:11:38;1.87;;;1.40;;
92;SDS011;16232;48.800;9.002;2023-12-20T00:14:08;2.97;;;2.10;;
92;SDS011;16232;48.800;9.002;2023-12-20T00:16:37;1.83;;;1.70;;
92;SDS011;16232;48.800;9.002;2023-12-20T00:19:05;1.77;;;1.47;;
92;SDS011;16232;48.800;9.002;2023-12-20T00:21:33;1.67;;;1.57;;
92;SDS011;16232;48.800;9.002;2023-12-20T00:24:00;1.53;;;1.43;;
92;SDS011;16232;48.800;9.002;2023-12-20T00:26:27;2.43;;;1.70;;
92;SDS011;16232;48.800;9.002;2023-12-20T00:28:55;2.87;;;1.67;;
92;SDS011;16232;48.800;9.002;2023-12-20T00:31:22;2.90;;;1.77;;
92;SDS011;16232;48.800;9.002;2023-12-20T00:33:51;1.83;;;1.73;;
92;SDS011;16232;48.800;9.002;2023-12-20T00:36:18;3.33;;;1.70;;
92;SDS011;16232;48.800;9.002;2023-12-20T00:38:46;3.40;;;2.07;;
92;SDS011;16232;48.800;9.002;2023-12-20T00:41:13;2.00;;;1.73;;
92;SDS011;16232;48.800;9.002;2023-12-20T00:43:41;2.57;;;2.17;;
92;SDS011;16232;48.800;9.002;2023-12-20T00:46:09;2.23;;;2.00;;
92;SDS011;16232;48.800;9.002;2023-12-20T00:48:37;2.20;;;2.00;;
92;SDS011;16232;48.800;9.002;2023-12-20T00:51:08;2.10;;;1.63;;
92;SDS011;16232;48.800;9.002;2023-12-20T00:53:36;2.10;;;1.83;;
92;SDS011;16232;48.800;9.002;2023-12-20T00:56:03;2.10;;;1.90;;
92;SDS011;16232;48.800;9.002;2023-12-20T00:58:31;2.80;;;2.47;;
92;SDS011;16232;48.800;9.002;2023-12-20T01:00:58;2.57;;;2.20;;
92;SDS011;16232;48.800;9.002;2023-12-20T01:03:25;3.50;;;2.33;;
92;SDS011;16232;48.800;9.002;2023-12-20T01:05:53;4.43;;;2.10;;
92;SDS011;16232;48.800;9.002;2023-12-20T01:08:22;2.30;;;1.90;;
92;SDS011;16232;48.800;9.002;2023-12-20T01:10:49;1.93;;;1.60;;
92;SDS011;16232;48.800;9.002;2023-12-20T01:13:17;2.17;;;1.87;;
92;SDS011;16232;48.800;9.002;2023-12-20T01:15:44;4.33;;;2.00;;
92;SDS011;16232;48.800;9.002;2023-12-20T01:18:12;5.23;;;2.07;;
92;SDS011;16232;48.800;9.002;2023-12-20T01:20:40;2.37;;;1.83;;
92;SDS011;16232;48.800;9.002;2023-12-20T01:23:08;3.50;;;2.30;;
92;SDS011;16232;48.800;9.002;2023-12-20T01:25:36;3.00;;;2.13;;
92;SDS011;16232;48.800;9.002;2023-12-20T01:28:04;3.70;;;2.53;;
92;SDS011;16232;48.800;9.002;2023-12-20T01:30:30;2.97;;;2.07;;
92;SDS011;16232;48.800;9.002;2023-12-20T01:32:59;3.20;;;2.27;;
92;SDS011;16232;48.800;9.002;2023-12-20T01:35:26;4.77;;;2.67;;
92;SDS011;16232;48.800;9.002;2023-12-20T01:37:54;2.60;;;2.20;;
92;SDS011;16232;48.800;9.002;2023-12-20T01:40:22;2.30;;;1.90;;
92;SDS011;16232;48.800;9.002;2023-12-20T01:42:58;2.67;;;2.27;;
92;SDS011;16232;48.800;9.002;2023-12-20T01:45:26;3.43;;;2.10;;
92;SDS011;16232;48.800;9.002;2023-12-20T01:47:54;4.47;;;2.33;;
92;SDS011;16232;48.800;9.002;2023-12-20T01:50:21;6.33;;;2.60;;
92;SDS011;16232;48.800;9.002;2023-12-20T01:52:49;3.13;;;2.37;;
92;SDS011;16232;48.800;9.002;2023-12-20T01:55:17;2.30;;;1.90;;
92;SDS011;16232;48.800;9.002;2023-12-20T01:57:45;3.60;;;2.43;;
92;SDS011;16232;48.800;9.002;2023-12-20T02:00:15;2.50;;;2.27;;
92;SDS011;16232;48.800;9.002;2023-12-20T02:02:42;3.50;;;2.13;;
92;SDS011;16232;48.800;9.002;2023-12-20T02:05:10;3.83;;;2.87;;
92;SDS011;16232;48.800;9.002;2023-12-20T02:07:38;2.93;;;2.63;;
92;SDS011;16232;48.800;9.002;2023-12-20T02:10:06;5.33;;;2.87;;
92;SDS011;16232;48.800;9.002;2023-12-20T02:12:33;3.00;;;2.70;;
92;SDS011;16232;48.800;9.002;2023-12-20T02:15:01;3.10;;;2.50;;
92;SDS011;16232;48.800;9.002;2023-12-20T02:17:30;1.80;;;1.70;;
92;SDS011;16232;48.800;9.002;2023-12-20T02:19:58;6.27;;;1.77;;
92;SDS011;16232;48.800;9.002;2023-12-20T02:22:27;1.80;;;1.23;;
92;SDS011;16232;48.800;9.002;2023-12-20T02:24:54;2.03;;;1.67;;
92;SDS011;16232;48.800;9.002;2023-12-20T02:27:22;0.80;;;0.73;;
92;SDS011;16232;48.800;9.002;2023-12-20T02:29:50;0.50;;;0.30;;
92;SDS011;16232;48.800;9.002;2023-12-20T02:32:17;0.93;;;0.43;;
92;SDS011;16232;48.800;9.002;2023-12-20T02:34:46;0.20;;;0.20;;
92;SDS011;16232;48.800;9.002;2023-12-20T02:37:14;0.53;;;0.40;;
92;SDS011;16232;48.800;9.002;2023-12-20T02:39:43;0.40;;;0.30;;
92;SDS011;16232;48.800;9.002;2023-12-20T02:42:10;0.10;;;0.10;;
92;SDS011;16232;48.800;9.002;2023-12-20T02:44:37;0.10;;;0.10;;
92;SDS011;16232;48.800;9.002;2023-12-20T02:47:05;0.20;;;0.20;;
92;SDS011;16232;48.800;9.002;2023-12-20T02:49:32;0.27;;;0.20;;
92;SDS011;16232;48.800;9.002;2023-12-20T02:52:00;0.10;;;0.10;;
92;SDS011;16232;48.800;9.002;2023-12-20T02:54:27;0.47;;;0.10;;
92;SDS011;16232;48.800;9.002;2023-12-20T02:56:56;0.13;;;0.13;;
92;SDS011;16232;48.800;9.002;2023-12-20T02:59:23;0.20;;;0.20;;
92;SDS011;16232;48.800;9.002;2023-12-20T03:01:51;0.10;;;0.10;;
92;SDS011;16232;48.800;9.002;2023-12-20T03:04:18;0.23;;;0.10;;
92;SDS011;16232;48.800;9.002;2023-12-20T03:06:45;1.07;;;0.23;;
92;SDS011;16232;48.800;9.002;2023-12-20T03:09:13;0.53;;;0.10;;
92;SDS011;16232;48.800;9.002;2023-12-20T03:11:40;0.23;;;0.10;;
92;SDS011;16232;48.800;9.002;2023-12-20T03:14:09;0.20;;;0.17;;
92;SDS011;16232;48.800;9.002;2023-12-20T03:16:37;1.90;;;0.30;;
92;SDS011;16232;48.800;9.002;2023-12-20T03:19:04;0.63;;;0.30;;
92;SDS011;16232;48.800;9.002;2023-12-20T03:21:31;0.60;;;0.20;;
92;SDS011;16232;48.800;9.002;2023-12-20T03:23:59;0.47;;;0.40;;
92;SDS011;16232;48.800;9.002;2023-12-20T03:26:26;0.33;;;0.20;;
92;SDS011;16232;48.800;9.002;2023-12-20T03:28:54;1.60;;;0.30;;
92;SDS011;16232;48.800;9.002;2023-12-20T03:31:22;0.93;;;0.37;;
92;SDS011;16232;48.800;9.002;2023-12-20T03:33:50;0.30;;;0.27;;
92;SDS011;16232;48.800;9.002;2023-12-20T03:36:18;0.70;;;0.30;;
92;SDS011;16232;48.800;9.002;2023-12-20T03:38:46;0.30;;;0.20;;
92;SDS011;16232;48.800;9.002;2023-12-20T03:41:13;0.17;;;0.17;;
92;SDS011;16232;48.800;9.002;2023-12-20T03:43:41;0.27;;;0.20;;
92;SDS011;16232;48.800;9.002;2023-12-20T03:46:08;1.20;;;0.10;;
92;SDS011;16232;48.800;9.002;2023-12-20T03:48:37;0.10;;;0.10;;
92;SDS011;16232;48.800;9.002;2023-12-20T03:51:04;0.33;;;0.23;;
92;SDS011;16232;48.800;9.002;2023-12-20T03:53:32;1.13;;;0.47;;
92;SDS011;16232;48.800;9.002;2023-12-20T03:55:59;0.30;;;0.30;;
92;SDS011;16232;48.800;9.002;2023-12-20T03:58:26;0.30;;;0.30;;
92;SDS011;16232;48.800;9.002;2023-12-20T04:00:54;0.50;;;0.30;;
92;SDS011;16232;48.800;9.002;2023-12-20T04:03:21;0.40;;;0.30;;
92;SDS011;16232;48.800;9.002;2023-12-20T04:05:50;1.10;;;0.37;;
92;SDS011;16232;48.800;9.002;2023-12-20T04:08:18;0.20;;;0.20;;
92;SDS011;16232;48.800;9.002;2023-12-20T04:10:45;0.30;;;0.30;;
92;SDS011;16232;48.800;9.002;2023-12-20T04:13:13;0.47;;;0.33;;
92;SDS011;16232;48.800;9.002;2023-12-20T04:15:40;0.27;;;0.13;;
92;SDS011;16232;48.800;9.002;2023-12-20T04:18:08;0.13;;;0.13;;
92;SDS011;16232;48.800;9.002;2023-12-20T04:20:35;0.17;;;0.17;;
92;SDS011;16232;48.800;9.002;2023-12-20T04:23:04;0.43;;;0.27;;
92;SDS011;16232;48.800;9.002;2023-12-20T04:25:32;0.10;;;0.10;;
92;SDS011;16232;48.800;9.002;2023-12-20T04:27:59;0.27;;;0.23;;
92;SDS011;16232;48.800;9.002;2023-12-20T04:30:27;0.20;;;0.20;;
92;SDS011;16232;48.800;9.002;2023-12-20T04:32:54;1.10;;;0.20;;
92;SDS011;16232;48.800;9.002;2023-12-20T04:35:22;0.13;;;0.13;;
92;SDS011;16232;48.800;9.002;2023-12-20T04:37:49;0.53;;;0.10;;
92;SDS011;16232;48.800;9.002;2023-12-20T04:40:18;0.10;;;0.10;;
92;SDS011;16232;48.800;9.002;2023-12-20T04:42:46;0.53;;;0.20;;
92;SDS011;16232;48.800;9.002;2023-12-20T04:45:13;0.20;;;0.20;;
92;SDS011;16232;48.800;9.002;2023-12-20T04:47:42;0.23;;;0.10;;
92;SDS011;16232;48.800;9.002;2023-12-20T04:50:09;0.33;;;0.30;;
92;SDS011;16232;48.800;9.002;2023-12-20T04:52:38;0.60;;;0.20;;
92;SDS011;16232;48.800;9.002;2023-12-20T04:55:06;0.17;;;0.13;;
92;SDS011;16232;48.800;9.002;2023-12-20T04:57:35;0.83;;;0.20;;
92;SDS011;16232;48.800;9.002;2023-12-20T05:00:02;0.20;;;0.20;;
92;SDS011;16232;48.800;9.002;2023-12-20T05:02:30;0.20;;;0.20;;
92;SDS011;16232;48.800;9.002;2023-12-20T05:04:58;0.50;;;0.17;;
92;SDS011;16232;48.800;9.002;2023-12-20T05:07:25;0.50;;;0.30;;
92;SDS011;16232;48.800;9.002;2023-12-20T05:09:53;1.23;;;0.10;;
92;SDS011;16232;48.800;9.002;2023-12-20T05:12:20;0.50;;;0.30;;
92;SDS011;16232;48.800;9.002;2023-12-20T05:14:49;0.30;;;0.30;;
92;SDS011;16232;48.800;9.002;2023-12-20T05:17:16;0.20;;;0.20;;
92;SDS011;16232;48.800;9.002;2023-12-20T05:19:45;0.30;;;0.30;;
92;SDS011;16232;48.800;9.002;2023-12-20T05:22:13;0.70;;;0.30;;
92;SDS011;16232;48.800;9.002;2023-12-20T05:24:40;0.30;;;0.20;;
92;SDS011;16232;48.800;9.002;2023-12-20T05:27:07;0.20;;;0.20;;
92;SDS011;16232;48.800;9.002;2023-12-20T05:29:36;0.27;;;0.27;;
92;SDS011;16232;48.800;9.002;2023-12-20T05:32:06;0.93;;;0.37;;
92;SDS011;16232;48.800;9.002;2023-12-20T05:34:33;0.30;;;0.30;;
92;SDS011;16232;48.800;9.002;2023-12-20T05:37:01;0.43;;;0.40;;
92;SDS011;16232;48.800;9.002;2023-12-20T05:39:29;0.30;;;0.30;;
92;SDS011;16232;48.800;9.002;2023-12-20T05:41:56;0.30;;;0.30;;
92;SDS011;16232;48.800;9.002;2023-12-20T05:44:24;3.50;;;0.60;;
92;SDS011;16232;48.800;9.002;2023-12-20T05:46:51;0.40;;;0.40;;
92;SDS011;16232;48.800;9.002;2023-12-20T05:49:20;1.10;;;0.40;;
92;SDS011;16232;48.800;9.002;2023-12-20T05:51:47;1.77;;;1.00;;
92;SDS011;16232;48.800;9.002;2023-12-20T05:54:16;1.17;;;0.67;;
92;SDS011;16232;48.800;9.002;2023-12-20T05:56:43;0.90;;;0.60;;
92;SDS011;16232;48.800;9.002;2023-12-20T05:59:11;0.70;;;0.63;;
92;SDS011;16232;48.800;9.002;2023-12-20T06:01:39;3.47;;;2.30;;
92;SDS011;16232;48.800;9.002;2023-12-20T06:04:06;14.20;;;9.37;;
92;SDS011;16232;48.800;9.002;2023-12-20T06:06:35;1.83;;;1.37;;
92;SDS011;16232;48.800;9.002;2023-12-20T06:09:07;3.17;;;1.53;;
92;SDS011;16232;48.800;9.002;2023-12-20T06:11:34;7.17;;;5.27;;
92;SDS011;16232;48.800;9.002;2023-12-20T06:14:02;12.43;;;8.57;;
92;SDS011;16232;48.800;9.002;2023-12-20T06:16:30;7.20;;;5.40;;
92;SDS011;16232;48.800;9.002;2023-12-20T06:18:57;3.93;;;2.80;;
92;SDS011;16232;48.800;9.002;2023-12-20T06:21:25;6.93;;;4.63;;
92;SDS011;16232;48.800;9.002;2023-12-20T06:23:53;3.47;;;2.43;;
92;SDS011;16232;48.800;9.002;2023-12-20T06:26:21;3.60;;;2.70;;
92;SDS011;16232;48.800;9.002;2023-12-20T06:28:48;5.90;;;4.60;;
92;SDS011;16232;48.800;9.002;2023-12-20T06:31:16;2.83;;;2.03;;
92;SDS011;16232;48.800;9.002;2023-12-20T06:33:43;7.90;;;5.30;;
92;SDS011;16232;48.800;9.002;2023-12-20T06:36:11;2.43;;;1.90;;
92;SDS011;16232;48.800;9.002;2023-12-20T06:38:39;1.87;;;1.67;;
92;SDS011;16232;48.800;9.002;2023-12-20T06:41:10;2.03;;;1.67;;
92;SDS011;16232;48.800;9.002;2023-12-20T06:43:40;2.13;;;1.53;;
92;SDS011;16232;48.800;9.002;2023-12-20T06:46:07;1.30;;;1.20;;
92;SDS011;16232;48.800;9.002;2023-12-20T06:48:35;2.03;;;1.87;;
92;SDS011;16232;48.800;9.002;2023-12-20T06:51:02;1.90;;;1.80;;
92;SDS011;16232;48.800;9.002;2023-12-20T06:53:30;1.93;;;1.73;;
92;SDS011;16232;48.800;9.002;2023-12-20T06:55:57;2.40;;;1.60;;
92;SDS011;16232;48.800;9.002;2023-12-20T06:58:26;2.10;;;1.10;;
92;SDS011;16232;48.800;9.002;2023-12-20T07:00:53;1.30;;;1.20;;
92;SDS011;16232;48.800;9.002;2023-12-20T07:03:20;1.77;;;1.67;;
92;SDS011;16232;48.800;9.002;2023-12-20T07:05:48;1.37;;;1.27;;
92;SDS011;16232;48.800;9.002;2023-12-20T07:08:15;2.10;;;1.90;;
92;SDS011;16232;48.800;9.002;2023-12-20T07:10:43;2.47;;;2.30;;
92;SDS011;16232;48.800;9.002;2023-12-20T07:13:10;2.50;;;2.30;;
92;SDS011;16232;48.800;9.002;2023-12-20T07:15:39;2.97;;;2.67;;
92;SDS011;16232;48.800;9.002;2023-12-20T07:18:06;3.47;;;2.50;;
92;SDS011;16232;48.800;9.002;2023-12-20T07:20:34;2.40;;;2.20;;
92;SDS011;16232;48.800;9.002;2023-12-20T07:23:01;3.13;;;2.83;;
92;SDS011;16232;48.800;9.002;2023-12-20T07:25:29;2.87;;;2.67;;
92;SDS011;16232;48.800;9.002;2023-12-20T07:27:57;3.07;;;2.80;;
92;SDS011;16232;48.800;9.002;2023-12-20T07:30:25;2.97;;;2.77;;
92;SDS011;16232;48.800;9.002;2023-12-20T07:32:54;4.10;;;3.03;;
92;SDS011;16232;48.800;9.002;2023-12-20T07:35:22;3.60;;;3.30;;
92;SDS011;16232;48.800;9.002;2023-12-20T07:37:50;4.47;;;3.30;;
92;SDS011;16232;48.800;9.002;2023-12-20T07:40:17;3.70;;;3.40;;
92;SDS011;16232;48.800;9.002;2023-12-20T07:42:45;3.70;;;3.40;;
92;SDS011;16232;48.800;9.002;2023-12-20T07:45:12;4.70;;;3.57;;
92;SDS011;16232;48.800;9.002;2023-12-20T07:47:40;5.73;;;3.90;;
92;SDS011;16232;48.800;9.002;2023-12-20T07:50:09;6.20;;;4.57;;
92;SDS011;16232;48.800;9.002;2023-12-20T07:52:36;9.70;;;7.90;;
92;SDS011;16232;48.800;9.002;2023-12-20T07:55:04;5.83;;;4.70;;
92;SDS011;16232;48.800;9.002;2023-12-20T07:57:31;6.70;;;4.40;;
92;SDS011;16232;48.800;9.002;2023-12-20T07:59:59;4.53;;;4.13;;
92;SDS011;16232;48.800;9.002;2023-12-20T08:02:26;4.33;;;3.93;;
92;SDS011;16232;48.800;9.002;2023-12-20T08:04:53;4.97;;;4.53;;
92;SDS011;16232;48.800;9.002;2023-12-20T08:07:22;4.63;;;3.97;;
92;SDS011;16232;48.800;9.002;2023-12-20T08:09:50;6.57;;;4.57;;
92;SDS011;16232;48.800;9.002;2023-12-20T08:12:18;5.40;;;4.23;;
92;SDS011;16232;48.800;9.002;2023-12-20T08:14:46;4.13;;;3.67;;
92;SDS011;16232;48.800;9.002;2023-12-20T08:17:13;9.77;;;3.67;;
92;SDS011;16232;48.800;9.002;2023-12-20T08:19:41;6.53;;;3.77;;
92;SDS011;16232;48.800;9.002;2023-12-20T08:22:09;4.80;;;4.13;;
92;SDS011;16232;48.800;9.002;2023-12-20T08:24:38;3.90;;;3.50;;
92;SDS011;16232;48.800;9.002;2023-12-20T08:27:05;4.80;;;3.33;;
92;SDS011;16232;48.800;9.002;2023-12-20T08:29:33;3.93;;;3.53;;
92;SDS011;16232;48.800;9.002;2023-12-20T08:32:00;5.17;;;3.47;;
92;SDS011;16232;48.800;9.002;2023-12-20T08:34:27;4.07;;;3.67;;
92;SDS011;16232;48.800;9.002;2023-12-20T08:36:55;4.30;;;2.87;;
92;SDS011;16232;48.800;9.002;2023-12-20T08:39:22;4.10;;;3.53;;
92;SDS011;16232;48.800;9.002;2023-12-20T08:41:51;4.73;;;3.87;;
92;SDS011;16232;48.800;9.002;2023-12-20T08:44:18;5.63;;;4.43;;
92;SDS011;16232;48.800;9.002;2023-12-20T08:46:47;5.77;;;3.97;;
92;SDS011;16232;48.800;9.002;2023-12-20T08:49:15;4.57;;;4.03;;
92;SDS011;16232;48.800;9.002;2023-12-20T08:51:42;5.50;;;4.20;;
92;SDS011;16232;48.800;9.002;2023-12-20T08:54:10;5.70;;;4.00;;
92;SDS011;16232;48.800;9.002;2023-12-20T08:56:38;4.37;;;3.57;;
92;SDS011;16232;48.800;9.002;2023-12-20T08:59:07;5.70;;;3.90;;
92;SDS011;16232;48.800;9.002;2023-12-20T09:01:34;3.70;;;3.20;;
92;SDS011;16232;48.800;9.002;2023-12-20T09:04:02;4.93;;;3.23;;
92;SDS011;16232;48.800;9.002;2023-12-20T09:06:29;4.53;;;2.37;;
92;SDS011;16232;48.800;9.002;2023-12-20T09:08:57;3.33;;;2.10;;
92;SDS011;16232;48.800;9.002;2023-12-20T09:11:24;2.80;;;2.30;;
92;SDS011;16232;48.800;9.002;2023-12-20T09:13:52;6.33;;;2.37;;
92;SDS011;16232;48.800;9.002;2023-12-20T09:16:20;3.13;;;1.60;;
92;SDS011;16232;48.800;9.002;2023-12-20T09:18:48;3.83;;;1.63;;
92;SDS011;16232;48.800;9.002;2023-12-20T09:21:17;2.67;;;1.70;;
92;SDS011;16232;48.800;9.002;2023-12-20T09:23:44;5.40;;;2.10;;
92;SDS011;16232;48.800;9.002;2023-12-20T09:26:12;5.53;;;1.70;;
92;SDS011;16232;48.800;9.002;2023-12-20T09:28:39;3.03;;;1.27;;
92;SDS011;16232;48.800;9.002;2023-12-20T09:31:07;4.63;;;1.57;;
92;SDS011;16232;48.800;9.002;2023-12-20T09:33:36;2.33;;;1.20;;
92;SDS011;16232;48.800;9.002;2023-12-20T09:36:03;4.57;;;1.37;;
92;SDS011;16232;48.800;9.002;2023-12-20T09:38:31;3.33;;;1.20;;
92;SDS011;16232;48.800;9.002;2023-12-20T09:40:59;3.40;;;1.10;;
92;SDS011;16232;48.800;9.002;2023-12-20T09:43:29;3.47;;;1.07;;
92;SDS011;16232;48.800;9.002;2023-12-20T09:45:59;1.63;;;0.80;;
92;SDS011;16232;48.800;9.002;2023-12-20T09:48:28;3.27;;;1.07;;
92;SDS011;16232;48.800;9.002;2023-12-20T09:50:57;2.77;;;1.10;;
92;SDS011;16232;48.800;9.002;2023-12-20T09:53:25;3.37;;;1.30;;
92;SDS011;16232;48.800;9.002;2023-12-20T09:55:55;2.63;;;0.97;;
92;SDS011;16232;48.800;9.002;2023-12-20T09:58:25;4.47;;;1.20;;
92;SDS011;16232;48.800;9.002;2023-12-20T10:00:52;3.67;;;1.77;;
92;SDS011;16232;48.800;9.002;2023-12-20T10:03:22;2.73;;;1.00;;
92;SDS011;16232;48.800;9.002;2023-12-20T10:05:51;4.33;;;1.33;;
92;SDS011;16232;48.800;9.002;2023-12-20T10:08:22;4.10;;;1.40;;
92;SDS011;16232;48.800;9.002;2023-12-20T10:10:49;1.97;;;1.10;;
92;SDS011;16232;48.800;9.002;2023-12-20T10:13:17;6.10;;;1.13;;
92;SDS011;16232;48.800;9.002;2023-12-20T10:15:44;3.90;;;1.33;;
92;SDS011;16232;48.800;9.002;2023-12-20T10:18:12;5.73;;;1.57;;
92;SDS011;16232;48.800;9.002;2023-12-20T10:20:40;3.37;;;1.33;;
92;SDS011;16232;48.800;9.002;2023-12-20T10:23:08;5.00;;;1.90;;
92;SDS011;16232;48.800;9.002;2023-12-20T10:25:37;5.90;;;1.13;;
92;SDS011;16232;48.800;9.002;2023-12-20T10:28:11;5.60;;;1.80;;
92;SDS011;16232;48.800;9.002;2023-12-20T10:30:39;6.30;;;1.83;;
92;SDS011;16232;48.800;9.002;2023-12-20T10:33:07;7.00;;;1.40;;
92;SDS011;16232;48.800;9.002;2023-12-20T10:35:35;6.03;;;1.60;;
92;SDS011;16232;48.800;9.002;2023-12-20T10:38:03;4.87;;;2.10;;
92;SDS011;16232;48.800;9.002;2023-12-20T10:40:31;3.73;;;1.47;;
92;SDS011;16232;48.800;9.002;2023-12-20T10:43:00;4.10;;;1.60;;
92;SDS011;16232;48.800;9.002;2023-12-20T10:45:28;5.10;;;1.53;;
92;SDS011;16232;48.800;9.002;2023-12-20T10:47:55;5.40;;;1.60;;
92;SDS011;16232;48.800;9.002;2023-12-20T10:50:24;5.07;;;1.50;;
92;SDS011;16232;48.800;9.002;2023-12-20T10:52:52;8.23;;;2.00;;
92;SDS011;16232;48.800;9.002;2023-12-20T10:55:21;4.67;;;1.43;;
92;SDS011;16232;48.800;9.002;2023-12-20T10:57:49;3.57;;;1.37;;
92;SDS011;16232;48.800;9.002;2023-12-20T11:00:18;3.63;;;1.10;;
92;SDS011;16232;48.800;9.002;2023-12-20T11:02:46;4.10;;;1.60;;
92;SDS011;16232;48.800;9.002;2023-12-20T11:05:20;2.83;;;1.53;;
92;SDS011;16232;48.800;9.002;2023-12-20T11:07:50;7.03;;;1.50;;
92;SDS011;16232;48.800;9.002;2023-12-20T11:10:23;4.50;;;1.60;;
92;SDS011;16232;48.800;9.002;2023-12-20T11:12:53;4.80;;;1.73;;
92;SDS011;16232;48.800;9.002;2023-12-20T11:15:23;5.20;;;1.60;;
92;SDS011;16232;48.800;9.002;2023-12-20T11:17:55;5.83;;;1.80;;
92;SDS011;16232;48.800;9.002;2023-12-20T11:20:23;2.93;;;1.80;;
92;SDS011;16232;48.800;9.002;2023-12-20T11:22:52;4.80;;;1.50;;
92;SDS011;16232;48.800;9.002;2023-12-20T11:25:20;7.30;;;2.20;;
92;SDS011;16232;48.800;9.002;2023-12-20T11:28:08;4.27;;;1.80;;
92;SDS011;16232;48.800;9.002;2023-12-20T11:30:46;3.70;;;1.73;;
92;SDS011;16232;48.800;9.002;2023-12-20T11:33:14;5.23;;;1.57;;
92;SDS011;16232;48.800;9.002;2023-12-20T11:35:42;7.57;;;2.07;;
92;SDS011;16232;48.800;9.002;2023-12-20T11:38:10;5.57;;;1.70;;
92;SDS011;16232;48.800;9.002;2023-12-20T11:40:37;2.37;;;1.23;;
92;SDS011;16232;48.800;9.002;2023-12-20T11:43:04;5.83;;;1.40;;
92;SDS011;16232;48.800;9.002;2023-12-20T11:45:32;3.50;;;1.30;;
92;SDS011;16232;48.800;9.002;2023-12-20T11:48:02;2.73;;;1.30;;
92;SDS011;16232;48.800;9.002;2023-12-20T11:50:30;3.03;;;1.00;;
92;SDS011;16232;48.800;9.002;2023-12-20T11:52:57;4.00;;;1.50;;
92;SDS011;16232;48.800;9.002;2023-12-20T11:55:24;5.03;;;1.40;;
92;SDS011;16232;48.800;9.002;2023-12-20T11:57:52;8.00;;;1.87;;
92;SDS011;16232;48.800;9.002;2023-12-20T12:00:20;5.13;;;1.50;;
92;SDS011;16232;48.800;9.002;2023-12-20T12:02:57;5.20;;;1.60;;
92;SDS011;16232;48.800;9.002;2023-12-20T12:05:30;3.63;;;1.50;;
92;SDS011;16232;48.800;9.002;2023-12-20T12:07:58;4.03;;;1.40;;
92;SDS011;16232;48.800;9.002;2023-12-20T12:10:26;1.93;;;1.00;;
92;SDS011;16232;48.800;9.002;2023-12-20T12:12:53;7.50;;;1.67;;
92;SDS011;16232;48.800;9.002;2023-12-20T12:15:21;4.80;;;1.97;;
92;SDS011;16232;48.800;9.002;2023-12-20T12:17:54;4.50;;;1.57;;
92;SDS011;16232;48.800;9.002;2023-12-20T12:20:22;8.93;;;1.50;;
92;SDS011;16232;48.800;9.002;2023-12-20T12:22:58;3.10;;;1.33;;
92;SDS011;16232;48.800;9.002;2023-12-20T12:25:26;5.13;;;1.37;;
92;SDS011;16232;48.800;9.002;2023-12-20T12:27:53;4.63;;;1.33;;
92;SDS011;16232;48.800;9.002;2023-12-20T12:30:21;2.73;;;1.40;;
92;SDS011;16232;48.800;9.002;2023-12-20T12:32:48;3.60;;;1.60;;
92;SDS011;16232;48.800;9.002;2023-12-20T12:35:15;3.80;;;1.03;;
92;SDS011;16232;48.800;9.002;2023-12-20T12:37:43;6.20;;;1.90;;
92;SDS011;16232;48.800;9.002;2023-12-20T12:40:12;4.17;;;0.90;;
92;SDS011;16232;48.800;9.002;2023-12-20T12:42:41;5.37;;;1.60;;
92;SDS011;16232;48.800;9.002;2023-12-20T12:45:09;3.23;;;1.20;;
92;SDS011;16232;48.800;9.002;2023-12-20T12:47:37;3.27;;;1.20;;
92;SDS011;16232;48.800;9.002;2023-12-20T12:50:04;5.90;;;2.17;;
92;SDS011;16232;48.800;9.002;2023-12-20T12:52:32;6.70;;;3.43;;
92;SDS011;16232;48.800;9.002;2023-12-20T12:55:00;6.13;;;2.27;;
92;SDS011;16232;48.800;9.002;2023-12-20T12:57:30;5.10;;;1.67;;
92;SDS011;16232;48.800;9.002;2023-12-20T12:59:57;3.83;;;1.57;;
92;SDS011;16232;48.800;9.002;2023-12-20T13:02:25;5.30;;;2.27;;
92;SDS011;16232;48.800;9.002;2023-12-20T13:04:52;5.27;;;2.13;;
92;SDS011;16232;48.800;9.002;2023-12-20T13:07:20;3.27;;;1.40;;
92;SDS011;16232;48.800;9.002;2023-12-20T13:09:47;6.80;;;1.23;;
92;SDS011;16232;48.800;9.002;2023-12-20T13:12:15;5.60;;;1.40;;
92;SDS011;16232;48.800;9.002;2023-12-20T13:14:43;4.37;;;1.47;;
92;SDS011;16232;48.800;9.002;2023-12-20T13:17:11;5.03;;;1.50;;
92;SDS011;16232;48.800;9.002;2023-12-20T13:19:38;5.37;;;2.10;;
92;SDS011;16232;48.800;9.002;2023-12-20T13:22:06;4.83;;;1.63;;
92;SDS011;16232;48.800;9.002;2023-12-20T13:24:33;4.37;;;1.30;;
92;SDS011;16232;48.800;9.002;2023-12-20T13:27:01;4.43;;;1.30;;
92;SDS011;16232;48.800;9.002;2023-12-20T13:29:29;2.83;;;1.00;;
92;SDS011;16232;48.800;9.002;2023-12-20T13:31:57;1.77;;;1.17;;
92;SDS011;16232;48.800;9.002;2023-12-20T13:34:25;4.63;;;1.07;;
92;SDS011;16232;48.800;9.002;2023-12-20T13:36:53;3.13;;;1.80;;
92;SDS011;16232;48.800;9.002;2023-12-20T13:39:20;3.83;;;1.23;;
92;SDS011;16232;48.800;9.002;2023-12-20T13:41:47;2.83;;;1.27;;
92;SDS011;16232;48.800;9.002;2023-12-20T13:44:15;3.70;;;1.73;;
92;SDS011;16232;48.800;9.002;2023-12-20T13:46:42;4.80;;;1.43;;
92;SDS011;16232;48.800;9.002;2023-12-20T13:49:12;4.90;;;1.50;;
92;SDS011;16232;48.800;9.002;2023-12-20T13:51:40;5.57;;;1.43;;
92;SDS011;16232;48.800;9.002;2023-12-20T13:54:07;6.50;;;4.20;;
92;SDS011;16232;48.800;9.002;2023-12-20T13:56:36;4.77;;;2.40;;
92;SDS011;16232;48.800;9.002;2023-12-20T13:59:03;5.27;;;2.40;;
92;SDS011;16232;48.800;9.002;2023-12-20T14:01:31;5.50;;;3.07;;
92;SDS011;16232;48.800;9.002;2023-12-20T14:03:58;7.70;;;3.80;;
92;SDS011;16232;48.800;9.002;2023-12-20T14:06:27;4.07;;;2.30;;
92;SDS011;16232;48.800;9.002;2023-12-20T14:08:55;4.97;;;1.60;;
92;SDS011;16232;48.800;9.002;2023-12-20T14:11:25;3.23;;;1.67;;
92;SDS011;16232;48.800;9.002;2023-12-20T14:13:52;3.60;;;1.77;;
92;SDS011;16232;48.800;9.002;2023-12-20T14:16:23;4.47;;;1.73;;
92;SDS011;16232;48.800;9.002;2023-12-20T14:18:50;4.27;;;2.17;;
92;SDS011;16232;48.800;9.002;2023-12-20T14:21:18;5.37;;;2.17;;
92;SDS011;16232;48.800;9.002;2023-12-20T14:23:47;5.23;;;2.03;;
92;SDS011;16232;48.800;9.002;2023-12-20T14:26:14;5.53;;;1.60;;
92;SDS011;16232;48.800;9.002;2023-12-20T14:28:41;4.97;;;1.77;;
92;SDS011;16232;48.800;9.002;2023-12-20T14:31:09;4.93;;;1.90;;
92;SDS011;16232;48.800;9.002;2023-12-20T14:33:37;5.73;;;1.50;;
92;SDS011;16232;48.800;9.002;2023-12-20T14:36:05;3.93;;;1.57;;
92;SDS011;16232;48.800;9.002;2023-12-20T14:38:32;4.77;;;1.40;;
92;SDS011;16232;48.800;9.002;2023-12-20T14:41:01;2.87;;;1.83;;
92;SDS011;16232;48.800;9.002;2023-12-20T14:43:31;4.07;;;1.53;;
92;SDS011;16232;48.800;9.002;2023-12-20T14:45:58;4.93;;;1.37;;
92;SDS011;16232;48.800;9.002;2023-12-20T14:48:26;7.23;;;1.40;;
92;SDS011;16232;48.800;9.002;2023-12-20T14:50:53;2.57;;;1.20;;
92;SDS011;16232;48.800;9.002;2023-12-20T14:53:21;5.03;;;1.83;;
92;SDS011;16232;48.800;9.002;2023-12-20T14:55:48;3.97;;;1.73;;
92;SDS011;16232;48.800;9.002;2023-12-20T14:58:17;5.83;;;1.60;;
92;SDS011;16232;48.800;9.002;2023-12-20T15:00:45;4.57;;;1.57;;
92;SDS011;16232;48.800;9.002;2023-12-20T15:03:12;3.67;;;1.40;;
92;SDS011;16232;48.800;9.002;2023-12-20T15:05:41;4.87;;;1.40;;
92;SDS011;16232;48.800;9.002;2023-12-20T15:08:09;4.80;;;1.60;;
92;SDS011;16232;48.800;9.002;2023-12-20T15:10:36;7.37;;;2.43;;
92;SDS011;16232;48.800;9.002;2023-12-20T15:13:04;5.13;;;2.33;;
92;SDS011;16232;48.800;9.002;2023-12-20T15:15:33;3.87;;;1.50;;
92;SDS011;16232;48.800;9.002;2023-12-20T15:18:00;4.37;;;1.40;;
92;SDS011;16232;48.800;9.002;2023-12-20T15:20:28;3.93;;;1.13;;
92;SDS011;16232;48.800;9.002;2023-12-20T15:22:58;3.40;;;1.30;;
92;SDS011;16232;48.800;9.002;2023-12-20T15:25:30;2.70;;;1.43;;
92;SDS011;16232;48.800;9.002;2023-12-20T15:27:57;6.40;;;1.80;;
92;SDS011;16232;48.800;9.002;2023-12-20T15:30:25;2.07;;;1.33;;
92;SDS011;16232;48.800;9.002;2023-12-20T15:32:53;4.60;;;1.37;;
92;SDS011;16232;48.800;9.002;2023-12-20T15:35:21;6.13;;;1.77;;